Scott AFB,Midamerica Airport Belleville US
ICAO: KBLV
IATA: BLV
Category: Large
Scheduled Services: No

Elevation: 459 ft
TransAlt. 18000 ft.

Airport Communications:
ST LOUIS APP/DEP:125.2
126 ARW COMD POST:138.55
ATIS:128.7
CLNC DEL:121.75
GND:119.2
PMSV METRO:23.98
375 AW COMD POST:130.65
PTD:139.85
TWR:118.65
UNICOM:122.95

KBLV Zoom In..

If you have problems with the map follow the link
https://www.worldairports.se/pages/airport.php?
ICAO=KBLV

Runways:

(A) RW 14L length 10000 ft width 150 ft
ILS 111.15 / hdg 135

(B) RW 14R length 8010 ft width 150 ft
ILS 109.90 / hdg 135

(C) RW 32L length 8010 ft width 150 ft
ILS 109.90 / hdg 315

(D) RW 32R length 10000 ft width 150 ft
ILS 111.15 / hdg 315

Location; KBLV
Day. 18 / Time. 01.56 Zulu
* Altimeter: 29.98
* Temperature: 00° c. 32°f.
* Wind from: 260° Speed 12 kn.
Dewpoint: -06° c.
Visibility: 10 Statute Miles.
Clouds: Overcast 2800 ft.

KBLV 180156Z AUTO 26012KT 10SM OVC028 00/M06 A2998 RMK AO2 SLP160 T10041058


Wind From 260°
Speed 12 kn.

 
 
jpsmedia.com for Web Design worldairports.se 2019   terms of use